KGVE/GVE METAR and TAF weather

Enter ICAO airport designator
Station Type Date Time Source
KGVE METAR 2021/07/29 02:35 UTC NOAA

KGVE 290235Z AUTO 00000KT 10SM SCT065 BKN090 25/21 A3001 RMK AO1 T02470208


Station Type Date Time Source
KGVE Decoded METAR 2021/07/29 02:35 UTC NOAA

Station name not available
Jul 28, 2021 - 10:35 PM EDT / 2021.07.29 0235 UTC
Wind: Calm:0
Visibility: 10 mile(s):0
Sky conditions: mostly cloudy
Temperature: 76.5 F (24.7 C)
Dew Point: 69.4 F (20.8 C)
Relative Humidity: 78%
Pressure (altimeter): 30.01 in. Hg (1016 hPa)
ob: KGVE 290235Z AUTO 00000KT 10SM SCT065 BKN090 25/21 A3001 RMK AO1 T02470208
cycle: 2

Station Type Date Time Source
KGVE TAF UTC NOAA

Error!

Example: see airport list